createdAt,value
2022-11-05T00:01:30.298Z,5.82
2022-11-05T00:04:50.204Z,5.77
2022-11-05T00:08:12.200Z,5.73
2022-11-05T00:11:17.891Z,5.69
2022-11-05T00:14:38.490Z,5.66
2022-11-05T00:17:41.045Z,5.61
2022-11-05T00:20:42.643Z,5.58
2022-11-05T00:24:02.785Z,5.54
2022-11-05T00:27:04.648Z,5.49
2022-11-05T00:30:07.296Z,5.44
2022-11-05T00:33:09.151Z,5.40
2022-11-05T00:36:11.651Z,5.36
2022-11-05T00:39:13.228Z,5.33
2022-11-05T00:42:33.365Z,5.30
2022-11-05T00:45:34.902Z,5.27
2022-11-05T00:48:54.803Z,5.24
2022-11-05T00:52:14.732Z,5.22
2022-11-05T00:55:16.331Z,5.17
2022-11-05T00:58:19.831Z,5.13
2022-11-05T01:01:21.460Z,5.09
2022-11-05T01:04:23.201Z,5.04
2022-11-05T01:07:24.749Z,5.01
2022-11-05T01:10:27.475Z,4.98
2022-11-05T01:13:30.618Z,4.96
2022-11-05T01:16:32.697Z,4.94
2022-11-05T01:19:34.387Z,4.94
2022-11-05T01:22:35.936Z,4.93
2022-11-05T01:25:37.631Z,4.90
2022-11-05T01:28:39.256Z,4.88
2022-11-05T01:31:40.895Z,4.87
2022-11-05T01:34:42.404Z,4.83
2022-11-05T01:37:44.593Z,4.79
2022-11-05T01:40:46.994Z,4.74
2022-11-05T01:43:57.528Z,4.71
2022-11-05T01:46:59.115Z,4.68
2022-11-05T01:50:05.625Z,4.68
2022-11-05T01:53:15.782Z,4.67
2022-11-05T01:56:29.219Z,4.66
2022-11-05T01:59:36.980Z,4.64
2022-11-05T02:02:38.965Z,4.62
2022-11-05T02:05:41.860Z,4.62
2022-11-05T02:08:51.631Z,4.60
2022-11-05T02:11:53.663Z,4.59
2022-11-05T02:14:56.958Z,4.58
2022-11-05T02:18:18.591Z,4.58
2022-11-05T02:21:52.424Z,4.58
2022-11-05T02:25:29.511Z,4.55
2022-11-05T02:28:42.975Z,4.54
2022-11-05T02:31:44.452Z,4.53
2022-11-05T02:34:56.867Z,4.51
2022-11-05T02:38:13.063Z,4.49
2022-11-05T02:41:25.782Z,4.47
2022-11-05T02:45:14.762Z,4.47
2022-11-05T02:48:31.309Z,4.47
2022-11-05T02:51:59.266Z,4.44
2022-11-05T02:55:10.196Z,4.41
2022-11-05T02:58:11.866Z,4.38
2022-11-05T03:01:13.437Z,4.36
2022-11-05T03:04:18.710Z,4.33
2022-11-05T03:07:34.459Z,4.30
2022-11-05T03:10:45.600Z,4.28
2022-11-05T03:14:22.846Z,4.26
2022-11-05T03:17:39.233Z,4.23
2022-11-05T03:21:03.119Z,4.20
2022-11-05T03:24:16.734Z,4.17
2022-11-05T03:27:29.267Z,4.13
2022-11-05T03:30:35.451Z,4.10
2022-11-05T03:33:39.990Z,4.08
2022-11-05T03:36:47.144Z,4.07
2022-11-05T03:39:57.429Z,4.07
2022-11-05T03:43:01.728Z,4.07
2022-11-05T03:46:09.889Z,4.08
2022-11-05T03:49:17.694Z,4.08
2022-11-05T03:52:24.512Z,4.09
2022-11-05T03:55:35.851Z,4.10
2022-11-05T03:58:42.806Z,4.09
2022-11-05T04:01:44.694Z,4.08
2022-11-05T04:04:46.663Z,4.06
2022-11-05T04:08:11.421Z,4.05
2022-11-05T04:11:33.854Z,4.04
2022-11-05T04:14:35.364Z,4.02
2022-11-05T04:17:36.929Z,4.02
2022-11-05T04:20:57.056Z,4.01
2022-11-05T04:24:10.534Z,3.98
2022-11-05T04:27:12.063Z,3.96
2022-11-05T04:30:24.409Z,3.93
2022-11-05T04:33:25.948Z,3.92
2022-11-05T04:36:27.476Z,3.89
2022-11-05T04:39:29.031Z,3.86
2022-11-05T04:42:30.560Z,3.83
2022-11-05T04:45:36.662Z,3.81
2022-11-05T04:48:38.564Z,3.77
2022-11-05T04:51:40.060Z,3.75
2022-11-05T04:54:41.587Z,3.72
2022-11-05T04:57:43.253Z,3.69
2022-11-05T05:00:44.885Z,3.66
2022-11-05T05:03:48.384Z,3.64
2022-11-05T05:06:49.959Z,3.60
2022-11-05T05:09:51.523Z,3.59
2022-11-05T05:12:53.062Z,3.57
2022-11-05T05:15:54.558Z,3.55
2022-11-05T05:18:56.114Z,3.53
2022-11-05T05:21:57.615Z,3.50
2022-11-05T05:25:00.131Z,3.50
2022-11-05T05:28:01.680Z,3.48
2022-11-05T05:31:03.331Z,3.48
2022-11-05T05:34:06.133Z,3.44
2022-11-05T05:37:07.693Z,3.43
2022-11-05T05:40:10.230Z,3.42
2022-11-05T05:43:12.215Z,3.41
2022-11-05T05:46:16.229Z,3.48
2022-11-05T05:49:17.803Z,3.47
2022-11-05T05:52:19.602Z,3.45
2022-11-05T05:55:21.485Z,3.43
2022-11-05T05:58:24.615Z,3.41
2022-11-05T06:01:26.468Z,3.38
2022-11-05T06:04:28.107Z,3.35
2022-11-05T06:07:34.441Z,3.33
2022-11-05T06:10:38.625Z,3.31
2022-11-05T06:13:40.609Z,3.30
2022-11-05T06:16:42.172Z,3.39
2022-11-05T06:19:44.016Z,3.38
2022-11-05T06:22:55.239Z,3.38
2022-11-05T06:26:00.275Z,3.35
2022-11-05T06:29:01.785Z,3.33
2022-11-05T06:32:03.405Z,3.28
2022-11-05T06:35:05.558Z,3.26
2022-11-05T06:38:07.099Z,3.22
2022-11-05T06:41:10.588Z,3.18
2022-11-05T06:44:12.475Z,3.15
2022-11-05T06:47:14.069Z,3.13
2022-11-05T06:50:15.641Z,3.13
2022-11-05T06:53:17.247Z,3.13
2022-11-05T06:56:18.840Z,3.14
2022-11-05T06:59:20.379Z,3.15
2022-11-05T07:02:22.028Z,3.18
2022-11-05T07:05:23.905Z,3.24
2022-11-05T07:08:25.514Z,3.31
2022-11-05T07:11:27.345Z,3.40
2022-11-05T07:14:28.858Z,3.55
2022-11-05T07:17:30.681Z,3.67
2022-11-05T07:20:34.347Z,3.79
2022-11-05T07:23:36.158Z,3.89
2022-11-05T07:26:37.712Z,3.97
2022-11-05T07:29:39.315Z,4.03
2022-11-05T07:32:41.136Z,4.09
2022-11-05T07:35:42.725Z,4.15
2022-11-05T07:38:44.457Z,4.17
2022-11-05T07:41:46.010Z,4.22
2022-11-05T07:44:47.556Z,4.24
2022-11-05T07:47:53.943Z,4.27
2022-11-05T07:50:55.539Z,4.29
2022-11-05T07:53:57.057Z,4.33
2022-11-05T07:56:58.652Z,4.36
2022-11-05T08:00:00.256Z,4.38
2022-11-05T08:03:08.392Z,4.42
2022-11-05T08:06:10.554Z,4.46
2022-11-05T08:09:13.060Z,4.49
2022-11-05T08:12:15.018Z,4.53
2022-11-05T08:15:17.353Z,4.59
2022-11-05T08:18:18.968Z,4.61
2022-11-05T08:21:20.487Z,4.66
2022-11-05T08:24:22.025Z,4.72
2022-11-05T08:27:23.783Z,4.78
2022-11-05T08:30:26.110Z,4.85
2022-11-05T08:33:29.459Z,4.92
2022-11-05T08:36:31.012Z,4.98
2022-11-05T08:39:32.630Z,5.05
2022-11-05T08:42:34.809Z,5.14
2022-11-05T08:45:38.262Z,5.20
2022-11-05T08:48:40.147Z,5.27
2022-11-05T08:51:43.180Z,5.32
2022-11-05T08:54:44.834Z,5.39
2022-11-05T08:57:46.523Z,5.45
2022-11-05T09:00:49.797Z,5.50
2022-11-05T09:03:51.956Z,5.56
2022-11-05T09:06:53.589Z,5.63
2022-11-05T09:09:55.223Z,5.72
2022-11-05T09:12:56.785Z,5.80
2022-11-05T09:16:00.030Z,5.87
2022-11-05T09:19:03.392Z,5.95
2022-11-05T09:22:04.969Z,6.03
2022-11-05T09:25:07.331Z,6.15
2022-11-05T09:28:16.733Z,6.27
2022-11-05T09:31:18.827Z,6.38
2022-11-05T09:34:20.350Z,6.46
2022-11-05T09:37:22.036Z,6.51
2022-11-05T09:40:25.773Z,6.60
2022-11-05T09:43:46.931Z,6.72
2022-11-05T09:46:54.691Z,6.85
2022-11-05T09:49:59.355Z,7.01
2022-11-05T09:53:01.912Z,7.17
2022-11-05T09:56:03.822Z,7.31
2022-11-05T09:59:37.323Z,7.49
2022-11-05T10:02:48.300Z,7.64
2022-11-05T10:05:52.192Z,7.80
2022-11-05T10:09:13.162Z,8.06
2022-11-05T10:12:18.725Z,8.26
2022-11-05T10:15:28.214Z,8.39
2022-11-05T10:18:42.887Z,8.48
2022-11-05T10:22:05.650Z,8.55
2022-11-05T10:25:19.640Z,8.63
2022-11-05T10:28:26.460Z,8.72
2022-11-05T10:31:35.448Z,8.78
2022-11-05T10:34:39.063Z,8.87
2022-11-05T10:37:41.421Z,8.97
2022-11-05T10:40:54.947Z,9.07
2022-11-05T10:44:34.246Z,9.16
2022-11-05T10:47:44.952Z,9.21
2022-11-05T10:50:47.405Z,9.26
2022-11-05T10:54:00.533Z,9.32
2022-11-05T10:57:43.809Z,9.40
2022-11-05T11:01:06.645Z,9.46
2022-11-05T11:04:23.879Z,9.53
2022-11-05T11:07:26.971Z,9.59
2022-11-05T11:10:32.722Z,9.65
2022-11-05T11:14:11.674Z,9.73
2022-11-05T11:17:28.340Z,9.78
2022-11-05T11:20:32.199Z,9.84
2022-11-05T11:23:39.175Z,9.90
2022-11-05T11:26:41.965Z,9.97
2022-11-05T11:29:49.723Z,10.07
2022-11-05T11:32:51.635Z,10.12
2022-11-05T11:35:53.281Z,10.16
2022-11-05T11:39:04.397Z,10.21
2022-11-05T11:42:14.876Z,10.24
2022-11-05T11:45:44.808Z,10.34
2022-11-05T11:48:48.546Z,10.45
2022-11-05T11:51:55.058Z,10.52
2022-11-05T11:55:11.709Z,10.56
2022-11-05T11:58:13.229Z,10.57
2022-11-05T12:01:39.089Z,10.59
2022-11-05T12:04:47.247Z,10.57
2022-11-05T12:07:58.078Z,10.58
2022-11-05T12:11:11.024Z,10.63
2022-11-05T12:14:33.161Z,10.64
2022-11-05T12:17:37.676Z,10.62
2022-11-05T12:21:08.019Z,10.61
2022-11-05T12:24:18.510Z,10.61
2022-11-05T12:27:50.994Z,10.59
2022-11-05T12:31:01.498Z,10.58
2022-11-05T12:34:09.019Z,10.54
2022-11-05T12:37:25.484Z,10.53
2022-11-05T12:40:51.790Z,10.51
2022-11-05T12:44:11.954Z,10.47
2022-11-05T12:47:47.075Z,10.40
2022-11-05T12:51:02.300Z,10.33
2022-11-05T12:54:31.471Z,10.27
2022-11-05T12:57:38.073Z,10.24
2022-11-05T13:00:44.500Z,10.23
2022-11-05T13:03:56.079Z,10.21
2022-11-05T13:07:01.756Z,10.23
2022-11-05T13:10:14.100Z,10.24
2022-11-05T13:13:42.701Z,10.24
2022-11-05T13:17:11.315Z,10.24
2022-11-05T13:20:18.257Z,10.24
2022-11-05T13:23:39.713Z,10.21
2022-11-05T13:26:50.459Z,10.16
2022-11-05T13:30:02.543Z,10.13
2022-11-05T13:33:14.093Z,10.09
2022-11-05T13:36:42.527Z,10.06
2022-11-05T13:39:55.402Z,10.06
2022-11-05T13:43:06.129Z,10.08
2022-11-05T13:46:41.962Z,10.08
2022-11-05T13:50:20.960Z,10.06
2022-11-05T13:54:18.207Z,10.04
2022-11-05T13:57:29.687Z,10.02
2022-11-05T14:00:43.226Z,10.01
2022-11-05T14:03:48.522Z,10.01
2022-11-05T14:06:50.180Z,9.98
2022-11-05T14:10:00.898Z,9.98
2022-11-05T14:13:19.655Z,9.99
2022-11-05T14:16:26.663Z,9.98
2022-11-05T14:19:33.262Z,9.98
2022-11-05T14:22:41.169Z,9.97
2022-11-05T14:25:42.694Z,9.95
2022-11-05T14:28:47.526Z,9.89
2022-11-05T14:32:07.940Z,9.88
2022-11-05T14:35:16.440Z,9.87
2022-11-05T14:38:22.270Z,9.86
2022-11-05T14:41:23.858Z,9.82
2022-11-05T14:44:26.953Z,9.80
2022-11-05T14:47:39.506Z,9.79
2022-11-05T14:50:42.635Z,9.78
2022-11-05T14:53:44.686Z,9.76
2022-11-05T14:56:53.271Z,9.74
2022-11-05T14:59:58.521Z,9.87
2022-11-05T15:03:24.728Z,10.21
2022-11-05T15:06:35.336Z,10.30
2022-11-05T15:09:40.508Z,10.33
2022-11-05T15:12:48.996Z,10.35
2022-11-05T15:15:51.899Z,10.33
2022-11-05T15:18:56.170Z,10.29
2022-11-05T15:22:01.049Z,10.26
2022-11-05T15:25:05.669Z,10.24
2022-11-05T15:28:26.050Z,10.24
2022-11-05T15:31:36.025Z,10.22
2022-11-05T15:34:37.605Z,10.21
2022-11-05T15:37:52.374Z,10.19
2022-11-05T15:40:58.873Z,10.16
2022-11-05T15:44:02.152Z,10.15
2022-11-05T15:47:08.040Z,10.14
2022-11-05T15:50:15.537Z,10.13
2022-11-05T15:54:08.843Z,10.14
2022-11-05T15:56:57.173Z,10.12
2022-11-05T15:59:59.036Z,10.09
2022-11-05T16:03:14.339Z,10.05
2022-11-05T16:06:16.281Z,10.05
2022-11-05T16:09:25.751Z,10.04
2022-11-05T16:12:31.774Z,10.04
2022-11-05T16:15:34.414Z,10.04
2022-11-05T16:18:40.476Z,10.02
2022-11-05T16:21:55.135Z,10.02
2022-11-05T16:24:56.760Z,9.97
2022-11-05T16:28:00.592Z,9.95
2022-11-05T16:31:04.535Z,9.93
2022-11-05T16:34:06.218Z,9.87
2022-11-05T16:37:11.444Z,9.84
2022-11-05T16:40:25.132Z,9.82
2022-11-05T16:43:27.363Z,9.82
2022-11-05T16:46:30.480Z,9.78
2022-11-05T16:49:31.983Z,9.76
2022-11-05T16:52:33.526Z,9.76
2022-11-05T16:55:37.635Z,9.75
2022-11-05T16:58:39.267Z,9.73
2022-11-05T17:01:42.290Z,9.72
2022-11-05T17:04:43.899Z,9.70
2022-11-05T17:07:45.702Z,9.70
2022-11-05T17:10:47.326Z,9.70
2022-11-05T17:13:49.354Z,9.67
2022-11-05T17:16:50.888Z,9.59
2022-11-05T17:19:52.459Z,9.53
2022-11-05T17:22:55.162Z,9.50
2022-11-05T17:26:01.751Z,9.46
2022-11-05T17:29:03.326Z,9.44
2022-11-05T17:32:07.902Z,9.42
2022-11-05T17:35:10.423Z,9.47
2022-11-05T17:38:12.729Z,9.58
2022-11-05T17:41:16.933Z,9.60
2022-11-05T17:44:18.474Z,9.54
2022-11-05T17:47:20.200Z,9.50
2022-11-05T17:50:21.956Z,9.47
2022-11-05T17:53:23.515Z,9.46
2022-11-05T17:56:33.795Z,9.43
2022-11-05T17:59:36.403Z,9.43
2022-11-05T18:02:38.045Z,9.43
2022-11-05T18:05:40.242Z,9.39
2022-11-05T18:08:41.794Z,9.33
2022-11-05T18:11:43.481Z,9.29
2022-11-05T18:14:45.058Z,9.26
2022-11-05T18:17:46.670Z,9.21
2022-11-05T18:20:48.253Z,9.19
2022-11-05T18:23:49.812Z,9.16
2022-11-05T18:26:51.435Z,9.14
2022-11-05T18:29:54.630Z,9.09
2022-11-05T18:32:56.134Z,9.07
2022-11-05T18:35:57.839Z,9.07
2022-11-05T18:39:01.110Z,9.07
2022-11-05T18:42:02.731Z,9.06
2022-11-05T18:45:06.721Z,9.03
2022-11-05T18:48:08.427Z,9.02
2022-11-05T18:51:12.061Z,9.00
2022-11-05T18:54:13.851Z,8.96
2022-11-05T18:57:15.394Z,8.95
2022-11-05T19:00:17.277Z,8.93
2022-11-05T19:03:18.812Z,8.94
2022-11-05T19:06:27.645Z,8.92
2022-11-05T19:09:29.192Z,8.88
2022-11-05T19:12:30.719Z,8.88
2022-11-05T19:15:32.431Z,8.90
2022-11-05T19:18:34.019Z,8.90
2022-11-05T19:21:35.539Z,8.89
2022-11-05T19:24:37.200Z,8.88
2022-11-05T19:27:39.279Z,8.84
2022-11-05T19:30:40.863Z,8.84
2022-11-05T19:33:43.835Z,8.82
2022-11-05T19:36:45.487Z,8.80
2022-11-05T19:39:46.994Z,8.77
2022-11-05T19:42:48.545Z,8.72
2022-11-05T19:45:50.163Z,8.68
2022-11-05T19:48:51.900Z,8.62
2022-11-05T19:51:53.675Z,8.58
2022-11-05T19:54:55.228Z,8.57
2022-11-05T19:57:56.780Z,8.55
2022-11-05T20:00:58.446Z,8.56
2022-11-05T20:04:02.506Z,8.54
2022-11-05T20:07:04.136Z,8.53
2022-11-05T20:10:07.063Z,8.53
2022-11-05T20:13:08.623Z,8.52
2022-11-05T20:16:25.312Z,8.53
2022-11-05T20:19:26.882Z,8.51
2022-11-05T20:22:28.418Z,8.48
2022-11-05T20:25:30.032Z,8.48
2022-11-05T20:28:32.543Z,8.47
2022-11-05T20:31:34.231Z,8.46
2022-11-05T20:34:35.759Z,8.45
2022-11-05T20:37:37.318Z,8.45
2022-11-05T20:40:39.849Z,8.45
2022-11-05T20:43:41.991Z,8.44
2022-11-05T20:46:43.554Z,8.43
2022-11-05T20:49:45.131Z,8.43
2022-11-05T20:52:46.805Z,8.41
2022-11-05T20:55:48.870Z,8.39
2022-11-05T20:58:51.268Z,8.39
2022-11-05T21:01:53.219Z,8.38
2022-11-05T21:04:54.925Z,8.38
2022-11-05T21:07:57.288Z,8.38
2022-11-05T21:10:59.605Z,8.37
2022-11-05T21:14:01.133Z,8.34
2022-11-05T21:17:02.750Z,8.33
2022-11-05T21:20:05.420Z,8.33
2022-11-05T21:23:06.962Z,8.32
2022-11-05T21:26:11.847Z,8.31
2022-11-05T21:29:13.462Z,8.29
2022-11-05T21:32:15.128Z,8.29
2022-11-05T21:35:16.695Z,8.28
2022-11-05T21:38:18.297Z,8.26
2022-11-05T21:41:19.854Z,8.27
2022-11-05T21:44:21.439Z,8.25
2022-11-05T21:47:23.028Z,8.25
2022-11-05T21:50:44.913Z,8.25
2022-11-05T21:54:05.127Z,8.23
2022-11-05T21:57:32.135Z,8.22
2022-11-05T22:00:33.935Z,8.23
2022-11-05T22:03:35.503Z,8.21
2022-11-05T22:06:37.034Z,8.20
2022-11-05T22:09:38.743Z,8.20
2022-11-05T22:12:40.297Z,8.20
2022-11-05T22:15:41.858Z,8.19
2022-11-05T22:18:43.374Z,8.20
2022-11-05T22:21:44.919Z,8.22
2022-11-05T22:24:46.765Z,8.22
2022-11-05T22:27:48.338Z,8.24
2022-11-05T22:30:49.892Z,8.27
2022-11-05T22:33:51.511Z,8.29
2022-11-05T22:36:53.179Z,8.29
2022-11-05T22:39:54.703Z,8.27
2022-11-05T22:42:56.255Z,8.27
2022-11-05T22:46:04.709Z,8.29
2022-11-05T22:49:07.376Z,8.27
2022-11-05T22:52:08.950Z,8.27
2022-11-05T22:55:10.687Z,8.26
2022-11-05T22:58:12.544Z,8.25
2022-11-05T23:01:15.784Z,8.24
2022-11-05T23:04:17.382Z,8.25
2022-11-05T23:07:37.560Z,8.26
2022-11-05T23:10:58.607Z,8.25
2022-11-05T23:14:00.554Z,8.23
2022-11-05T23:17:21.062Z,8.42
2022-11-05T23:20:42.203Z,8.40
2022-11-05T23:24:02.052Z,8.38
2022-11-05T23:27:03.745Z,8.34
2022-11-05T23:30:12.441Z,8.28
2022-11-05T23:33:13.963Z,8.26
2022-11-05T23:36:34.088Z,8.23
2022-11-05T23:39:41.202Z,8.20
2022-11-05T23:43:03.626Z,8.16
2022-11-05T23:46:23.706Z,8.13
2022-11-05T23:49:25.567Z,8.10
2022-11-05T23:52:27.106Z,8.08
2022-11-05T23:55:30.463Z,8.05
2022-11-05T23:58:32.391Z,8.04
